Terminal Aerodrome Forecast
Issued by NWS Jackson, KY

Home | Current Version | Previous Version | Text Only | Print | Product List | Glossary On
Versions: 1 2 3 4 5 6 7 8 9 10 11 12 13 14 15 16 17
000
FTUS43 KJKL 021302 AAB
TAFJKL
TAF AMD
KJKL 021302Z 0213/0312 VRB04KT 6SM BR FEW011 OVC020
     FM021400 VRB03KT 5SM BR BKN005 BKN022
     FM021500 VRB03KT P6SM SCT004 SCT025
     FM021700 VRB03KT P6SM SCT030 SCT100
     FM022100 VRB03KT P6SM FEW030 SCT250=

USA.gov is the U.S. government's official web portal to all federal, state and local government web resources and services.